createdAt,value
2024-03-19T08:37:44.559Z,11.1
2024-03-19T09:58:09.626Z,14
2024-03-19T10:08:12.147Z,14.1
2024-03-19T13:28:53.659Z,16.5
2024-03-19T13:48:57.930Z,17.5
2024-03-19T14:09:02.486Z,15.9
2024-03-19T14:29:06.584Z,16.1
2024-03-19T14:39:08.811Z,16
2024-03-19T14:49:11.198Z,15.9
2024-03-19T14:59:12.830Z,15.9
2024-03-19T15:09:14.677Z,15.9
2024-03-19T15:19:16.329Z,16.2
2024-03-19T15:29:18.799Z,16
2024-03-19T15:39:21.172Z,16.2
2024-03-19T15:59:25.447Z,16.5
2024-03-19T16:09:29.304Z,16
2024-03-19T16:19:29.801Z,15.9
2024-03-19T16:29:31.535Z,15.8
2024-03-19T16:39:33.917Z,15.7
2024-03-19T16:49:35.898Z,15.6
2024-03-19T16:59:37.843Z,15.3
2024-03-19T17:09:39.807Z,14.9
2024-03-19T17:19:42.387Z,14.4
2024-03-19T17:29:44.480Z,14
2024-03-19T17:39:46.719Z,13.6
2024-03-19T17:59:51.017Z,12.6
2024-03-19T18:09:53.049Z,12
2024-03-19T18:19:55.182Z,11.4
2024-03-19T18:29:57.723Z,10.9
2024-03-19T18:39:59.478Z,10.5
2024-03-19T18:50:01.443Z,10.3
2024-03-19T19:00:03.160Z,10.5
2024-03-19T19:10:05.611Z,10.5
2024-03-19T19:20:07.749Z,10.5
2024-03-19T19:30:09.650Z,10.7
2024-03-19T19:40:11.284Z,11
2024-03-19T19:50:13.444Z,10.7
2024-03-19T20:00:15.401Z,10.4
2024-03-19T20:10:17.565Z,10.2
2024-03-19T20:20:19.900Z,9.8
2024-03-19T20:30:22.205Z,9.6
2024-03-19T20:40:24.485Z,9.4
2024-03-19T20:50:26.585Z,9.2
2024-03-19T21:00:28.408Z,9.2
2024-03-19T21:10:30.743Z,9.3
2024-03-19T21:20:32.981Z,9.4
2024-03-19T21:30:37.094Z,9.5
2024-03-19T21:50:38.801Z,9.4
2024-03-19T22:00:40.914Z,9.1
2024-03-19T22:10:42.998Z,8.8
2024-03-19T22:20:45.334Z,8.7
2024-03-19T22:30:47.702Z,8.5
2024-03-19T22:40:50.205Z,8.4
2024-03-19T22:50:52.781Z,8.3
2024-03-19T23:00:54.753Z,8.2
2024-03-19T23:10:57.259Z,8.2
2024-03-19T23:20:59.527Z,8.1
2024-03-19T23:41:04.722Z,7.8
2024-03-19T23:51:06.570Z,7.7
